Time;durP1;ratioP1;P1;durP2;ratioP2;P2;SDS_P1;SDS_P2;PMS_P1;PMS_P2;Temp;Humidity;BMP_temperature;BMP_pressure;BME280_temperature;BME280_humidity;BME280_pressure;Samples;Min_cycle;Max_cycle;Signal;HPM_P1;HPM_P2
2021/06/10 00:01:05;;;;;;;12.23;6.08;;;;;;;14.51;57.59;100625.28;2064143;86;28710;-58
2021/06/10 00:04:07;;;;;;;9.90;5.05;;;;;;;14.48;57.88;100629.50;2064166;86;31906;-59
2021/06/10 00:07:14;;;;;;;10.38;5.45;;;;;;;14.43;57.81;100625.75;2052738;86;33809;-60
2021/06/10 00:10:18;;;;;;;7.12;5.65;;;;;;;14.41;58.01;100627.17;2064281;86;29462;-55
2021/06/10 00:13:20;;;;;;;7.22;5.87;;;;;;;14.38;58.41;100627.38;2064476;86;27543;-53
2021/06/10 00:16:22;;;;;;;9.85;5.90;;;;;;;14.35;58.32;100626.67;2063538;86;28795;-57
2021/06/10 00:19:24;;;;;;;13.53;6.22;;;;;;;14.30;58.43;100624.27;2064440;86;31021;-61
2021/06/10 00:22:28;;;;;;;12.23;5.80;;;;;;;14.27;58.76;100626.67;2064179;86;33006;-60
2021/06/10 00:25:31;;;;;;;6.12;4.60;;;;;;;14.25;58.91;100631.28;2064518;86;34675;-61
2021/06/10 00:28:32;;;;;;;8.45;5.35;;;;;;;14.20;58.77;100628.48;2041222;86;27822;-61
2021/06/10 00:31:34;;;;;;;11.33;6.30;;;;;;;14.17;58.99;100633.55;2041436;87;29848;-61
2021/06/10 00:34:36;;;;;;;11.10;5.83;;;;;;;14.13;59.22;100636.06;2041353;87;31089;-62
2021/06/10 00:37:38;;;;;;;8.08;5.17;;;;;;;14.09;59.25;100629.97;2060885;85;33038;-62
2021/06/10 00:40:40;;;;;;;12.45;5.33;;;;;;;14.06;59.31;100631.98;2105944;84;29377;-62
2021/06/10 00:43:42;;;;;;;14.25;5.90;;;;;;;14.03;59.38;100635.73;2106109;84;27567;-62
2021/06/10 00:46:44;;;;;;;10.45;5.08;;;;;;;13.98;59.83;100632.44;2104907;84;29508;-62
2021/06/10 00:49:46;;;;;;;14.45;6.62;;;;;;;13.94;59.69;100629.53;2105904;84;31838;-61
2021/06/10 00:52:47;;;;;;;11.43;5.67;;;;;;;13.91;59.88;100636.44;2105880;84;33938;-62
2021/06/10 00:55:52;;;;;;;11.53;5.53;;;;;;;13.88;60.13;100636.64;2105918;84;29362;-61
2021/06/10 00:58:54;;;;;;;13.98;6.62;;;;;;;13.83;60.11;100637.77;2105140;84;27593;-62
2021/06/10 01:01:56;;;;;;;9.20;5.97;;;;;;;13.80;60.16;100641.98;2105907;84;28744;-63
2021/06/10 01:04:57;;;;;;;16.75;7.12;;;;;;;13.77;60.29;100641.30;2105896;84;31173;-62
2021/06/10 01:08:11;;;;;;;13.32;5.28;;;;;;;13.73;60.54;100642.42;2104847;84;33835;-63
2021/06/10 01:11:50;;;;;;;13.72;5.62;;;;;;;13.71;60.51;100640.29;2105729;84;29408;-60
2021/06/10 01:15:09;;;;;;;11.75;6.08;;;;;;;13.66;60.46;100638.72;2105191;84;27526;-61
2021/06/10 01:18:12;;;;;;;12.47;6.05;;;;;;;13.61;60.86;100638.14;2083169;84;29688;-63
2021/06/10 01:21:17;;;;;;;9.75;5.33;;;;;;;13.59;60.71;100636.47;2070368;86;31022;-61
2021/06/10 01:24:58;;;;;;;12.78;6.10;;;;;;;13.55;60.89;100631.75;2070193;86;33063;-63
2021/06/10 01:28:11;;;;;;;9.53;6.00;;;;;;;13.51;61.15;100636.44;2083824;84;30325;-63
2021/06/10 01:31:14;;;;;;;8.80;6.08;;;;;;;13.46;61.26;100627.75;2074229;85;27528;-62
2021/06/10 01:34:16;;;;;;;12.58;6.00;;;;;;;13.42;61.49;100631.56;2083537;85;28616;-63
2021/06/10 01:37:19;;;;;;;14.80;6.40;;;;;;;13.40;61.48;100633.92;2067790;85;31139;-63
2021/06/10 01:40:23;;;;;;;10.48;5.78;;;;;;;13.36;61.74;100639.47;2056163;86;33009;-62
2021/06/10 01:43:28;;;;;;;15.72;6.62;;;;;;;13.32;61.76;100639.25;2055612;86;29446;-62
2021/06/10 01:46:31;;;;;;;;;;;;;;;13.28;61.77;100632.78;2059476;86;27529;-63
2021/06/10 01:49:33;;;;;;;15.23;6.40;;;;;;;13.25;62.13;100634.30;2070744;86;28874;-62
2021/06/10 01:52:36;;;;;;;12.07;6.25;;;;;;;13.18;62.08;100630.62;2070691;86;32064;-63
2021/06/10 01:55:38;;;;;;;10.20;6.37;;;;;;;13.15;62.03;100629.44;2047230;86;33013;-62
2021/06/10 01:58:42;;;;;;;14.90;6.78;;;;;;;13.12;62.08;100627.40;2042550;86;29319;-62
2021/06/10 02:01:45;;;;;;;12.27;6.93;;;;;;;13.09;62.13;100623.04;2042839;87;27614;-63
2021/06/10 02:04:48;;;;;;;10.90;6.40;;;;;;;13.07;62.29;100620.94;2048910;86;28712;-59
2021/06/10 02:07:50;;;;;;;16.75;6.45;;;;;;;13.04;62.35;100617.92;2030011;86;31094;-57
2021/06/10 02:10:57;;;;;;;14.58;6.97;;;;;;;13.02;62.35;100621.66;2054553;86;33269;-63
2021/06/10 02:13:59;;;;;;;15.90;7.33;;;;;;;13.00;62.80;100622.21;2054730;86;29544;-62
2021/06/10 02:17:01;;;;;;;17.23;7.03;;;;;;;12.96;62.50;100626.02;2056401;86;27549;-63
2021/06/10 02:20:08;;;;;;;17.32;7.30;;;;;;;12.92;62.58;100628.01;2056320;86;28889;-64
2021/06/10 02:23:10;;;;;;;15.48;7.15;;;;;;;12.89;62.92;100629.52;2056245;86;31807;-62
2021/06/10 02:26:15;;;;;;;17.23;6.10;;;;;;;12.85;63.00;100626.13;2056386;86;33090;-63
2021/06/10 02:29:17;;;;;;;17.30;7.20;;;;;;;12.84;63.01;100624.85;2050963;85;30222;-62
2021/06/10 02:32:18;;;;;;;19.25;7.45;;;;;;;12.81;63.14;100627.73;2052008;86;27537;-63
2021/06/10 02:35:20;;;;;;;16.67;7.87;;;;;;;12.80;63.29;100631.37;2032314;85;28784;-63
2021/06/10 02:38:24;;;;;;;19.05;9.35;;;;;;;12.78;63.31;100631.92;2022332;88;31233;-62
2021/06/10 02:41:29;;;;;;;20.27;8.20;;;;;;;12.74;63.44;100633.42;2022691;88;32925;-60
2021/06/10 02:44:32;;;;;;;14.65;8.08;;;;;;;12.74;63.60;100637.95;1991267;89;29493;-62
2021/06/10 02:47:35;;;;;;;13.83;7.58;;;;;;;12.73;63.73;100637.55;2001416;89;27599;-62
2021/06/10 02:50:39;;;;;;;14.90;7.60;;;;;;;12.72;63.73;100629.95;2001480;89;28746;-63
2021/06/10 02:53:43;;;;;;;18.70;7.20;;;;;;;12.72;63.72;100627.26;2052705;85;31051;-62
2021/06/10 02:56:45;;;;;;;14.50;7.45;;;;;;;12.73;63.91;100631.69;2060290;86;32950;-61
2021/06/10 02:59:48;;;;;;;10.63;7.30;;;;;;;12.74;64.28;100634.77;2069627;86;29306;-60
2021/06/10 03:02:51;;;;;;;13.08;7.40;;;;;;;12.75;64.13;100637.86;2069701;85;27696;-61
2021/06/10 03:05:56;;;;;;;14.58;6.65;;;;;;;12.77;64.58;100637.76;2033638;85;29283;-60
2021/06/10 03:08:58;;;;;;;12.35;7.33;;;;;;;12.81;64.39;100641.17;1984699;89;32042;-61
2021/06/10 03:12:01;;;;;;;12.33;6.78;;;;;;;12.83;64.37;100637.90;1984148;89;33034;-60
2021/06/10 03:15:05;;;;;;;17.37;7.00;;;;;;;12.87;64.58;100636.33;2035023;86;29950;-62
2021/06/10 03:18:07;;;;;;;10.95;7.28;;;;;;;12.91;64.67;100639.22;2040883;86;27545;-60
2021/06/10 03:21:09;;;;;;;16.10;7.47;;;;;;;12.96;64.90;100640.80;1984066;89;29507;-61
2021/06/10 03:24:11;;;;;;;11.88;7.20;;;;;;;13.02;65.05;100639.14;1987180;89;31087;-60
2021/06/10 03:27:13;;;;;;;16.77;8.45;;;;;;;13.07;65.13;100635.23;2052006;86;33969;-62
2021/06/10 03:30:17;;;;;;;15.25;8.18;;;;;;;13.14;65.13;100636.26;2067130;85;30251;-61
2021/06/10 03:33:18;;;;;;;19.30;9.40;;;;;;;13.18;65.35;100636.00;2007878;87;27590;-61
2021/06/10 03:36:22;;;;;;;17.65;8.28;;;;;;;13.26;65.20;100631.53;2003496;87;28869;-62
2021/06/10 03:39:25;;;;;;;10.98;7.40;;;;;;;13.34;65.42;100635.14;2030683;87;31062;-60
2021/06/10 03:42:29;;;;;;;13.15;8.30;;;;;;;13.41;65.39;100629.83;2030533;87;33161;-60
2021/06/10 03:45:31;;;;;;;11.33;7.50;;;;;;;13.50;65.65;100635.16;2075651;85;29398;-61
2021/06/10 03:48:34;;;;;;;12.23;7.45;;;;;;;13.59;65.67;100628.39;2077521;85;27547;-62
2021/06/10 03:51:35;;;;;;;13.32;8.70;;;;;;;13.70;65.52;100632.70;2076970;85;28649;-60
2021/06/10 03:54:41;;;;;;;17.67;8.03;;;;;;;13.79;65.65;100630.81;2077416;85;30992;-61
2021/06/10 03:57:42;;;;;;;;;;;;;;;13.90;65.76;100623.95;2079899;85;33875;-62
2021/06/10 04:00:44;;;;;;;13.43;8.45;;;;;;;13.99;65.80;100622.05;2077768;85;29408;-60
2021/06/10 04:03:46;;;;;;;12.73;8.95;;;;;;;14.07;65.87;100622.45;2079581;85;27575;-60
2021/06/10 04:06:47;;;;;;;13.50;9.15;;;;;;;14.19;65.80;100622.70;2041739;87;28726;-60
2021/06/10 04:09:49;;;;;;;18.00;9.60;;;;;;;14.30;65.81;100622.92;2031212;87;31100;-59
2021/06/10 04:12:51;;;;;;;14.55;9.25;;;;;;;14.43;65.77;100625.75;2041680;87;33019;-59
2021/06/10 04:15:53;;;;;;;12.50;9.30;;;;;;;14.56;65.66;100628.08;2041707;87;30169;-58
2021/06/10 04:18:55;;;;;;;14.13;9.55;;;;;;;14.72;65.63;100635.25;2020503;87;27574;-58
2021/06/10 04:21:57;;;;;;;20.30;11.33;;;;;;;14.86;65.69;100640.66;2030635;87;29673;-57
2021/06/10 04:24:59;;;;;;;18.98;10.85;;;;;;;15.01;65.35;100646.05;2068351;86;31019;-57
2021/06/10 04:28:01;;;;;;;14.85;9.43;;;;;;;15.17;65.10;100647.31;2070411;85;33068;-59
2021/06/10 04:31:03;;;;;;;16.50;11.28;;;;;;;15.31;64.99;100640.55;2061303;85;29454;-57
2021/06/10 04:34:05;;;;;;;13.88;10.50;;;;;;;15.49;64.74;100638.98;2065119;86;27507;-63
2021/06/10 04:37:06;;;;;;;15.68;10.23;;;;;;;15.69;64.61;100630.06;2068454;86;28702;-61
2021/06/10 04:40:10;;;;;;;13.83;9.63;;;;;;;15.90;64.36;100634.05;2057229;86;30997;-61
2021/06/10 04:43:12;;;;;;;17.17;9.30;;;;;;;16.14;64.39;100636.55;2055746;86;33715;-62
2021/06/10 04:46:13;;;;;;;15.28;9.48;;;;;;;16.74;64.94;100632.42;2055793;86;29538;-62
2021/06/10 04:49:15;;;;;;;12.80;8.43;;;;;;;17.89;64.71;100625.06;2007455;88;27663;-59
2021/06/10 04:52:17;;;;;;;20.45;10.00;;;;;;;19.24;63.49;100624.16;2007678;88;29893;-60
2021/06/10 04:55:20;;;;;;;16.52;8.70;;;;;;;20.64;61.84;100618.00;2007957;88;31729;-60
2021/06/10 04:58:22;;;;;;;13.45;8.68;;;;;;;21.91;59.60;100618.98;2030289;85;33115;-62
2021/06/10 05:01:24;;;;;;;9.98;7.10;;;;;;;23.07;57.83;100622.20;2041048;87;29484;-58
2021/06/10 05:04:26;;;;;;;16.90;9.83;;;;;;;24.01;55.70;100620.78;2035830;86;27768;-59
2021/06/10 05:07:28;;;;;;;12.82;7.25;;;;;;;24.86;54.17;100613.41;2017578;88;29567;-59
2021/06/10 05:10:30;;;;;;;15.93;8.03;;;;;;;25.77;52.91;100620.67;2019344;86;31172;-57
2021/06/10 05:13:32;;;;;;;12.37;6.92;;;;;;;26.65;50.88;100610.94;2022905;88;32948;-57
2021/06/10 05:16:35;;;;;;;14.28;7.08;;;;;;;27.30;49.31;100610.42;2023518;88;29319;-58
2021/06/10 05:19:39;;;;;;;11.88;6.92;;;;;;;27.82;48.18;100608.11;2055758;85;27527;-59
2021/06/10 05:22:41;;;;;;;12.00;6.62;;;;;;;28.43;47.06;100613.36;2071537;86;28635;-57
2021/06/10 05:25:44;;;;;;;13.10;6.50;;;;;;;28.99;45.94;100608.84;2061388;86;31041;-59
2021/06/10 05:28:47;;;;;;;18.20;7.65;;;;;;;29.50;44.00;100611.34;2063271;85;33814;-58
2021/06/10 05:31:49;;;;;;;11.60;6.55;;;;;;;29.94;43.23;100609.50;2108241;83;29368;-58
2021/06/10 05:34:51;;;;;;;6.85;5.45;;;;;;;30.49;42.29;100606.17;2109218;84;27627;-58
2021/06/10 05:37:56;;;;;;;10.23;6.87;;;;;;;31.14;41.52;100606.89;2107499;84;28667;-57
2021/06/10 05:40:57;;;;;;;8.00;4.75;;;;;;;31.73;40.15;100597.66;2033389;87;31848;-58
2021/06/10 05:43:59;;;;;;;9.15;5.87;;;;;;;32.17;38.95;100607.02;2033359;87;33557;-60
2021/06/10 05:47:01;;;;;;;10.85;5.95;;;;;;;32.63;38.08;100608.09;2074125;85;29397;-56
2021/06/10 05:50:05;;;;;;;11.80;6.05;;;;;;;33.02;36.92;100603.02;2099285;84;27605;-58
2021/06/10 05:53:08;;;;;;;;;;;;;;;33.32;35.91;100601.64;2111569;84;29740;-57
2021/06/10 05:56:10;;;;;;;7.30;5.30;;;;;;;33.46;34.69;100595.53;2109027;84;31017;-64
2021/06/10 05:59:12;;;;;;;8.20;4.92;;;;;;;33.61;34.47;100594.70;2094869;84;33904;-64
2021/06/10 06:02:15;;;;;;;11.03;5.67;;;;;;;33.62;34.00;100588.59;2035622;87;29306;-63
2021/06/10 06:05:17;;;;;;;6.43;4.90;;;;;;;33.44;33.36;100595.73;2035740;87;27569;-67
2021/06/10 06:08:18;;;;;;;8.75;4.80;;;;;;;33.46;32.97;100586.66;2035998;85;29749;-63
2021/06/10 06:11:21;;;;;;;10.35;4.60;;;;;;;33.46;32.56;100581.09;2037804;87;31207;-63
2021/06/10 06:14:29;;;;;;;7.50;4.95;;;;;;;33.80;32.23;100585.09;2067139;86;33652;-62
2021/06/10 06:17:31;;;;;;;8.65;4.87;;;;;;;34.17;31.83;100578.86;1962035;89;29181;-62
2021/06/10 06:20:34;;;;;;;12.55;5.17;;;;;;;34.59;31.17;100579.13;1961961;90;27617;-62
2021/06/10 06:23:39;;;;;;;15.55;5.10;;;;;;;35.08;30.79;100583.47;1961773;90;28635;-62
2021/06/10 06:26:42;;;;;;;11.68;5.65;;;;;;;35.52;29.85;100574.14;1961216;89;31016;-57
2021/06/10 06:29:44;;;;;;;10.60;5.58;;;;;;;35.77;29.52;100580.13;1960984;90;32473;-57
2021/06/10 06:32:46;;;;;;;7.85;6.55;;;;;;;36.03;28.83;100581.12;1965466;90;29551;-57
2021/06/10 06:35:48;;;;;;;10.00;6.37;;;;;;;36.08;28.16;100585.98;1965551;90;27595;-56
2021/06/10 06:38:51;;;;;;;11.15;6.30;;;;;;;35.83;27.58;100584.73;1965798;90;29462;-57
2021/06/10 06:41:53;;;;;;;15.55;7.40;;;;;;;35.83;27.50;100586.13;1965912;90;32058;-56
2021/06/10 06:44:55;;;;;;;12.37;6.70;;;;;;;36.25;27.12;100589.46;1965591;90;34009;-58
2021/06/10 06:47:57;;;;;;;17.45;8.13;;;;;;;36.67;26.81;100582.95;1988322;89;29481;-56
2021/06/10 06:51:02;;;;;;;13.40;7.03;;;;;;;36.87;26.05;100582.59;1988487;89;27987;-59
2021/06/10 06:54:04;;;;;;;9.40;6.42;;;;;;;37.25;26.17;100579.25;1988312;89;28599;-56
2021/06/10 06:57:07;;;;;;;7.47;5.62;;;;;;;37.66;25.60;100578.38;1986393;89;32128;-56
2021/06/10 07:00:09;;;;;;;12.03;5.80;;;;;;;38.02;24.98;100582.42;1962253;89;33027;-57
2021/06/10 07:03:11;;;;;;;13.65;7.20;;;;;;;38.09;23.92;100573.30;1988293;89;29458;-56
2021/06/10 07:06:13;;;;;;;11.05;5.37;;;;;;;37.67;23.87;100570.29;1988273;89;27669;-56
2021/06/10 07:09:15;;;;;;;7.90;4.47;;;;;;;37.66;24.54;100575.58;1962859;89;29393;-57
2021/06/10 07:12:17;;;;;;;5.53;3.87;;;;;;;38.12;24.37;100575.59;1955217;91;31033;-56
2021/06/10 07:15:19;;;;;;;10.15;3.98;;;;;;;38.31;23.47;100581.77;1955132;91;32949;-57
2021/06/10 07:18:21;;;;;;;7.30;3.80;;;;;;;38.29;23.11;100578.41;1962162;89;29472;-58
2021/06/10 07:21:22;;;;;;;5.33;3.58;;;;;;;38.08;22.85;100575.27;1965123;90;27953;-58
2021/06/10 07:24:24;;;;;;;7.10;3.70;;;;;;;37.89;22.95;100580.76;1965759;90;28618;-60
2021/06/10 07:27:26;;;;;;;6.42;3.17;;;;;;;37.77;22.74;100582.22;2052960;85;31393;-58
2021/06/10 07:30:28;;;;;;;8.00;2.85;;;;;;;37.76;22.61;100584.71;2082678;85;33715;-62
2021/06/10 07:33:30;;;;;;;6.03;2.72;;;;;;;37.35;22.43;100591.19;2070906;85;29506;-58
2021/06/10 07:36:34;;;;;;;3.05;2.75;;;;;;;36.52;22.46;100591.84;2048035;86;27885;-56
2021/06/10 07:39:36;;;;;;;5.40;2.58;;;;;;;35.69;22.86;100605.00;2057619;86;29426;-58
2021/06/10 07:42:42;;;;;;;4.67;2.70;;;;;;;34.77;23.38;100607.55;2054773;86;30626;-55
2021/06/10 07:45:44;;;;;;;3.40;2.70;;;;;;;33.89;23.86;100626.00;2054050;86;33820;-61
2021/06/10 07:48:46;;;;;;;6.35;2.37;;;;;;;33.03;24.55;100614.99;2054781;86;30143;-59
2021/06/10 07:51:48;;;;;;;5.55;3.08;;;;;;;32.24;25.13;100629.52;2054748;86;27563;-58
2021/06/10 07:54:50;;;;;;;11.50;4.22;;;;;;;31.56;25.88;100642.86;2054618;86;28641;-57
2021/06/10 07:57:52;;;;;;;6.45;4.85;;;;;;;30.88;26.99;100655.97;2054103;86;31247;-57
2021/06/10 08:00:54;;;;;;;9.83;5.70;;;;;;;29.91;28.49;100654.08;2054618;86;33900;-61
2021/06/10 08:03:55;;;;;;;8.03;5.92;;;;;;;28.83;29.29;100658.13;2054437;86;30269;-59
2021/06/10 08:06:57;;;;;;;11.43;6.22;;;;;;;28.02;30.58;100664.09;2056587;86;27567;-58
2021/06/10 08:10:00;;;;;;;12.58;6.53;;;;;;;27.29;31.56;100667.85;2056370;86;28870;-62
2021/06/10 08:13:02;;;;;;;9.90;6.78;;;;;;;26.64;32.96;100665.56;2056333;86;30702;-59
2021/06/10 08:16:05;;;;;;;11.00;7.72;;;;;;;25.94;34.10;100672.33;2056588;86;33037;-61
2021/06/10 08:19:08;;;;;;;10.05;7.17;;;;;;;25.39;34.60;100678.66;2056480;86;30191;-68
2021/06/10 08:22:10;;;;;;;8.68;6.47;;;;;;;24.95;35.48;100679.60;2056686;86;27501;-77
2021/06/10 08:25:13;;;;;;;8.63;7.50;;;;;;;24.53;36.54;100679.77;2060878;86;29264;-62
2021/06/10 08:28:15;;;;;;;8.90;6.50;;;;;;;24.18;37.67;100685.62;2070751;86;31138;-57
2021/06/10 08:31:17;;;;;;;8.95;6.20;;;;;;;23.85;37.92;100694.81;2080916;85;33758;-57
2021/06/10 08:34:18;;;;;;;8.55;5.72;;;;;;;23.52;39.22;100691.69;2090157;85;30462;-58
2021/06/10 08:37:20;;;;;;;11.05;5.87;;;;;;;23.16;39.17;100701.95;2067652;86;27493;-58
2021/06/10 08:40:23;;;;;;;29.37;7.60;;;;;;;22.80;40.14;100699.50;2035578;86;28788;-57
2021/06/10 08:43:25;;;;;;;26.80;8.38;;;;;;;22.41;43.05;100699.88;2035527;86;31020;-57
2021/06/10 08:46:27;;;;;;;7.83;6.22;;;;;;;22.02;45.24;100705.30;2075981;84;33135;-57
2021/06/10 08:49:31;;;;;;;10.13;5.87;;;;;;;21.58;46.23;100699.27;2106233;84;29304;-62
2021/06/10 08:52:33;;;;;;;11.73;6.17;;;;;;;21.10;47.15;100700.26;2106310;84;27562;-60
2021/06/10 08:55:35;;;;;;;7.87;5.90;;;;;;;20.74;47.77;100703.83;2106370;84;28724;-64
2021/06/10 08:58:38;;;;;;;10.53;5.55;;;;;;;20.57;49.33;100706.14;2100814;84;31214;-62
2021/06/10 09:01:43;;;;;;;5.78;4.53;;;;;;;20.52;49.58;100712.47;2032383;86;33111;-62
2021/06/10 09:04:44;;;;;;;8.45;5.80;;;;;;;20.54;49.89;100719.13;2054806;86;29408;-61
2021/06/10 09:07:53;;;;;;;9.70;5.60;;;;;;;20.62;50.23;100722.08;2054807;86;27529;-57
2021/06/10 09:11:17;;;;;;;10.28;5.37;;;;;;;20.74;50.61;100720.16;2102190;84;43942;-57
2021/06/10 09:14:19;;;;;;;6.40;4.47;;;;;;;20.83;50.06;100725.34;2105891;84;31059;-61
2021/06/10 09:17:36;;;;;;;5.53;4.47;;;;;;;20.81;49.88;100711.00;2106159;84;33874;-57
2021/06/10 09:20:46;;;;;;;4.67;4.25;;;;;;;20.61;49.71;100714.90;2080609;84;29329;-57
2021/06/10 09:23:47;;;;;;;5.22;4.72;;;;;;;20.41;50.37;100720.69;2073455;85;27660;-56
2021/06/10 09:27:11;;;;;;;5.08;3.90;;;;;;;20.20;50.57;100724.22;2035547;86;28616;-59
2021/06/10 09:30:31;;;;;;;6.03;3.92;;;;;;;19.99;51.16;100734.53;2057492;86;31040;-57
2021/06/10 09:33:43;;;;;;;5.15;4.65;;;;;;;19.81;51.02;100736.89;2067327;86;33052;-57
2021/06/10 09:36:48;;;;;;;7.50;4.20;;;;;;;19.71;51.18;100739.97;2008798;88;29349;-56
2021/06/10 09:39:53;;;;;;;4.25;3.85;;;;;;;19.68;51.62;100732.94;2009041;88;27586;-56
2021/06/10 09:42:56;;;;;;;5.78;4.55;;;;;;;19.73;52.11;100717.61;2069689;86;29719;-56
2021/06/10 09:45:58;;;;;;;6.40;4.40;;;;;;;19.77;53.23;100704.14;2070969;86;31750;-56
2021/06/10 09:49:07;;;;;;;7.62;4.47;;;;;;;19.70;52.90;100666.20;2070974;86;33006;-56
2021/06/10 09:52:09;;;;;;;6.25;4.00;;;;;;;19.64;53.87;100664.02;2068455;86;30255;-56
2021/06/10 09:55:30;;;;;;;6.70;4.17;;;;;;;19.59;54.13;100677.48;2024919;88;27590;-56
2021/06/10 09:58:41;;;;;;;12.47;4.33;;;;;;;19.47;54.38;100677.13;2037868;86;29607;-59
2021/06/10 10:01:43;;;;;;;9.75;4.08;;;;;;;19.41;54.40;100681.69;2024713;88;31022;-59
2021/06/10 10:05:07;;;;;;;5.55;3.80;;;;;;;19.45;54.68;100695.41;2009390;87;33006;-57
2021/06/10 10:08:14;;;;;;;7.67;4.80;;;;;;;19.44;55.17;100709.47;2050926;86;29347;-58
2021/06/10 10:11:14;;;;;;;5.60;4.35;;;;;;;19.50;55.92;100720.36;2027854;87;27554;-59
2021/06/10 10:14:17;;;;;;;8.45;4.85;;;;;;;19.58;56.54;100719.73;2004002;87;28681;-57
2021/06/10 10:17:19;;;;;;;7.60;4.87;;;;;;;19.72;56.61;100717.23;2050460;86;31163;-57
2021/06/10 10:20:21;;;;;;;8.95;4.53;;;;;;;19.90;56.70;100725.78;2050273;86;33026;-65
2021/06/10 10:23:23;;;;;;;6.50;4.25;;;;;;;20.11;56.96;100724.49;2050312;86;29322;-63
2021/06/10 10:26:25;;;;;;;7.92;4.95;;;;;;;20.36;56.94;100720.20;2047832;86;27712;-62
2021/06/10 10:29:28;;;;;;;4.60;4.12;;;;;;;20.50;56.44;100702.20;2068854;86;28176;-64
2021/06/10 10:32:31;;;;;;;6.00;4.20;;;;;;;20.61;56.03;100687.68;2067893;85;31252;-64
2021/06/10 10:35:34;;;;;;;6.37;3.80;;;;;;;20.77;55.66;100677.70;2067825;84;33024;-64
2021/06/10 10:38:41;;;;;;;4.50;3.55;;;;;;;20.98;55.31;100677.71;2048438;86;29480;-64
2021/06/10 10:41:53;;;;;;;6.35;3.45;;;;;;;21.15;54.60;100668.55;2068027;86;27481;-64
2021/06/10 10:45:31;;;;;;;4.75;3.75;;;;;;;21.37;54.67;100662.88;2067783;86;29522;-63
2021/06/10 10:48:46;;;;;;;3.83;3.20;;;;;;;21.54;53.54;100658.66;1994065;89;31141;-57
2021/06/10 10:51:48;;;;;;;3.50;3.20;;;;;;;21.77;52.39;100648.89;2025876;87;32974;-57
2021/06/10 10:54:51;;;;;;;4.37;3.95;;;;;;;22.08;53.66;100641.11;2027379;87;29930;-56
2021/06/10 10:58:01;;;;;;;8.48;5.22;;;;;;;22.45;52.63;100634.95;2036740;85;27556;-57
2021/06/10 11:01:04;;;;;;;4.10;2.98;;;;;;;22.76;50.85;100643.79;2073094;85;29556;-57
2021/06/10 11:04:06;;;;;;;3.52;3.02;;;;;;;22.89;49.43;100635.80;2093571;85;31079;-57
2021/06/10 11:07:39;;;;;;;2.90;2.60;;;;;;;23.04;49.51;100629.33;2069874;84;33078;-57
2021/06/10 11:10:51;;;;;;;3.40;3.10;;;;;;;23.14;48.87;100634.76;2064651;86;29980;-63
2021/06/10 11:13:53;;;;;;;6.72;3.10;;;;;;;23.22;48.54;100629.45;2102059;84;27581;-57
2021/06/10 11:17:23;;;;;;;4.25;3.12;;;;;;;23.32;47.95;100624.78;2109128;84;29545;-57
2021/06/10 11:20:41;;;;;;;19.15;11.85;;;;;;;23.33;47.60;100622.93;2109130;84;31833;-57
2021/06/10 11:23:48;;;;;;;10.00;6.40;;;;;;;23.38;47.21;100611.53;2079150;84;33166;-57
2021/06/10 11:27:01;;;;;;;3.52;2.90;;;;;;;23.38;46.82;100615.11;2006818;86;29382;-56
2021/06/10 11:30:25;;;;;;;2.25;2.02;;;;;;;23.32;46.59;100607.53;2026744;87;27584;-57
2021/06/10 11:33:29;;;;;;;2.40;1.87;;;;;;;23.30;46.72;100609.03;1951468;90;28652;-57
2021/06/10 11:36:30;;;;;;;2.70;2.02;;;;;;;23.27;45.60;100603.02;2012835;87;31184;-59
2021/06/10 11:39:34;;;;;;;5.35;3.35;;;;;;;23.14;45.51;100597.86;2039604;87;33076;-56
2021/06/10 11:42:43;;;;;;;3.33;2.37;;;;;;;23.05;45.08;100590.94;2039535;87;29361;-57
2021/06/10 11:45:46;;;;;;;7.72;1.90;;;;;;;23.05;44.75;100583.23;2006277;88;27542;-57
2021/06/10 11:48:51;;;;;;;1.72;1.60;;;;;;;23.08;44.20;100582.94;2037593;87;28800;-57
2021/06/10 11:51:56;;;;;;;5.00;2.08;;;;;;;23.06;43.87;100576.75;2002536;88;31990;-57
2021/06/10 11:55:05;;;;;;;3.08;1.80;;;;;;;23.05;43.86;100576.40;2002312;88;33030;-57
2021/06/10 11:58:11;;;;;;;2.37;1.57;;;;;;;23.04;43.29;100574.19;2002460;87;29591;-58
2021/06/10 12:01:14;;;;;;;2.67;1.80;;;;;;;23.09;42.79;100568.27;1994146;88;27607;-56
2021/06/10 12:04:18;;;;;;;8.35;1.90;;;;;;;23.19;42.86;100569.58;2025195;87;28993;-56
2021/06/10 12:07:20;;;;;;;3.58;1.47;;;;;;;23.35;42.81;100556.63;2029115;87;31111;-57
2021/06/10 12:10:22;;;;;;;4.08;1.72;;;;;;;23.52;42.58;100551.69;2039173;87;33098;-57
2021/06/10 12:13:34;;;;;;;2.55;1.50;;;;;;;23.67;42.10;100542.94;2002420;88;30122;-57
2021/06/10 12:16:35;;;;;;;2.65;1.60;;;;;;;23.71;41.13;100542.98;2038904;86;27539;-57
2021/06/10 12:19:37;;;;;;;2.30;1.85;;;;;;;23.69;41.42;100542.80;2002440;88;28604;-57
2021/06/10 12:22:45;;;;;;;2.10;1.90;;;;;;;23.69;40.81;100535.97;2002514;88;31265;-57
2021/06/10 12:25:57;;;;;;;2.37;1.40;;;;;;;23.65;40.50;100525.33;2002374;88;33000;-57
2021/06/10 12:29:01;;;;;;;1.90;1.72;;;;;;;23.63;40.98;100522.41;2002431;88;29587;-57
2021/06/10 12:32:04;;;;;;;1.72;1.62;;;;;;;23.63;40.51;100522.41;1991622;88;27523;-56
2021/06/10 12:35:07;;;;;;;1.90;1.65;;;;;;;23.63;40.27;100523.78;1974625;89;28837;-56
2021/06/10 12:38:11;;;;;;;2.08;1.55;;;;;;;23.61;40.36;100518.45;2001259;89;31247;-56
2021/06/10 12:41:21;;;;;;;2.07;1.33;;;;;;;23.55;40.54;100493.11;2063749;86;33003;-56
2021/06/10 12:44:31;;;;;;;1.60;1.40;;;;;;;23.55;40.54;100493.11;2070533;86;30043;-57
2021/06/10 12:47:42;;;;;;;2.65;2.08;;;;;;;23.75;40.43;100514.80;2069984;85;27555;-56
2021/06/10 12:50:41;;;;;;;2.52;1.90;;;;;;;23.81;40.23;100519.66;2069885;86;28710;-57
2021/06/10 12:53:57;;;;;;;2.15;1.52;;;;;;;23.84;40.14;100511.14;2045450;86;30736;-58
2021/06/10 12:57:00;;;;;;;3.20;1.85;;;;;;;23.89;39.95;100508.80;2064439;86;32942;-56
2021/06/10 13:00:06;;;;;;;5.60;1.62;;;;;;;23.95;39.83;100513.62;2027243;87;30199;-57
2021/06/10 13:03:10;;;;;;;2.35;1.75;;;;;;;24.00;39.71;100514.53;2027649;87;27594;-56
2021/06/10 13:06:13;;;;;;;2.90;2.58;;;;;;;24.02;39.98;100512.50;2027641;87;28634;-57
2021/06/10 13:09:24;;;;;;;2.75;2.10;;;;;;;24.08;39.95;100513.73;2060430;86;31650;-57
2021/06/10 13:12:29;;;;;;;3.77;1.95;;;;;;;24.11;39.86;100516.16;2070521;86;32972;-57
2021/06/10 13:15:37;;;;;;;2.50;1.77;;;;;;;24.17;40.05;100514.17;2070525;86;30169;-57
2021/06/10 13:18:41;;;;;;;2.52;2.10;;;;;;;24.25;39.91;100511.47;2050893;86;27529;-57
2021/06/10 13:21:43;;;;;;;3.75;2.45;;;;;;;24.32;39.95;100508.09;2027451;87;29963;-59
2021/06/10 13:24:50;;;;;;;2.22;1.70;;;;;;;24.35;39.69;100505.89;2027391;87;31106;-57
2021/06/10 13:28:19;;;;;;;2.70;2.08;;;;;;;24.40;39.92;100497.22;2032753;85;33101;-58
2021/06/10 13:31:41;;;;;;;5.40;1.98;;;;;;;24.42;39.67;100496.02;2070442;86;29537;-56
2021/06/10 13:34:54;;;;;;;2.15;1.62;;;;;;;24.41;39.24;100500.27;2069282;86;27565;-61
2021/06/10 13:37:46;;;;;;;2.30;1.87;;;;;;;24.41;39.35;100491.56;2067741;86;28825;-59
2021/06/10 13:40:48;;;;;;;2.10;1.90;;;;;;;24.43;39.26;100485.42;2040016;87;31275;-60
2021/06/10 13:43:50;;;;;;;2.65;2.10;;;;;;;24.48;39.64;100488.19;2041607;87;33055;-58
2021/06/10 13:46:57;;;;;;;1.75;1.65;;;;;;;24.55;39.60;100483.75;2041623;87;28837;-57
2021/06/10 13:50:02;;;;;;;3.10;2.47;;;;;;;24.58;39.72;100474.69;2040588;87;27677;-60
2021/06/10 13:53:03;;;;;;;3.83;2.13;;;;;;;24.60;39.48;100480.02;2041856;86;28799;-57
2021/06/10 13:56:04;;;;;;;4.75;2.10;;;;;;;24.57;39.25;100472.97;2077541;85;31094;-60
2021/06/10 13:59:06;;;;;;;5.90;2.62;;;;;;;24.55;39.09;100468.20;2077718;85;33195;-60
2021/06/10 14:02:08;;;;;;;5.75;2.20;;;;;;;24.55;39.23;100469.56;2041827;85;30173;-59
2021/06/10 14:05:10;;;;;;;5.20;3.20;;;;;;;24.56;39.16;100460.82;2078423;85;27721;-61
2021/06/10 14:08:12;;;;;;;5.40;2.75;;;;;;;24.52;39.07;100464.41;2079162;85;28914;-60
2021/06/10 14:11:15;;;;;;;8.90;3.85;;;;;;;24.48;39.25;100456.69;2044325;85;31019;-61
2021/06/10 14:14:16;;;;;;;2.90;2.58;;;;;;;24.46;39.54;100453.25;2027364;87;32918;-59